createdAt,value
2023-05-02T00:01:56.016Z,12.57
2023-05-02T00:04:23.403Z,16.33
2023-05-02T00:06:53.167Z,16.08
2023-05-02T00:09:20.122Z,15.82
2023-05-02T00:11:46.857Z,16.95
2023-05-02T00:14:13.585Z,19.05
2023-05-02T00:16:40.478Z,15.65
2023-05-02T00:19:07.232Z,16.05
2023-05-02T00:21:34.116Z,18.35
2023-05-02T00:24:00.851Z,18.20
2023-05-02T00:26:27.807Z,16.08
2023-05-02T00:28:54.706Z,21.58
2023-05-02T00:31:21.453Z,20.73
2023-05-02T00:33:48.097Z,16.42
2023-05-02T00:36:16.265Z,23.67
2023-05-02T00:38:42.991Z,18.38
2023-05-02T00:41:09.856Z,17.55
2023-05-02T00:43:37.311Z,14.93
2023-05-02T00:46:04.367Z,12.80
2023-05-02T00:48:31.113Z,19.85
2023-05-02T00:50:58.406Z,17.80
2023-05-02T00:53:25.152Z,26.67
2023-05-02T00:55:51.832Z,18.17
2023-05-02T00:58:19.267Z,17.25
2023-05-02T01:01:10.720Z,22.80
2023-05-02T01:03:52.058Z,15.73
2023-05-02T01:06:56.116Z,18.05
2023-05-02T01:09:30.427Z,14.65
2023-05-02T01:12:16.250Z,15.30
2023-05-02T01:14:45.825Z,13.82
2023-05-02T01:17:14.768Z,14.65
2023-05-02T01:19:49.448Z,16.90
2023-05-02T01:22:16.690Z,14.25
2023-05-02T01:25:09.743Z,14.55
2023-05-02T01:27:58.639Z,14.30
2023-05-02T01:30:27.385Z,16.17
2023-05-02T01:32:55.879Z,18.27
2023-05-02T01:35:23.450Z,17.60
2023-05-02T01:37:50.385Z,18.95
2023-05-02T01:40:19.516Z,14.40
2023-05-02T01:42:48.706Z,14.65
2023-05-02T01:45:15.825Z,15.57
2023-05-02T01:47:43.979Z,17.35
2023-05-02T01:50:13.873Z,16.92
2023-05-02T01:52:41.097Z,18.40
2023-05-02T01:55:09.899Z,13.35
2023-05-02T01:57:38.388Z,19.05
2023-05-02T02:00:06.404Z,23.05
2023-05-02T02:02:34.390Z,17.15
2023-05-02T02:05:01.624Z,16.75
2023-05-02T02:07:28.307Z,15.57
2023-05-02T02:09:54.988Z,18.33
2023-05-02T02:12:27.661Z,22.27
2023-05-02T02:15:03.663Z,18.88
2023-05-02T02:17:37.903Z,23.63
2023-05-02T02:20:07.605Z,16.92
2023-05-02T02:22:37.036Z,15.13
2023-05-02T02:25:06.129Z,14.98
2023-05-02T02:27:32.889Z,20.33
2023-05-02T02:29:59.694Z,22.70
2023-05-02T02:32:26.678Z,17.38
2023-05-02T02:34:53.404Z,22.25
2023-05-02T02:37:31.698Z,25.15
2023-05-02T02:40:11.187Z,42.38
2023-05-02T02:42:42.901Z,35.83
2023-05-02T02:45:16.946Z,36.78
2023-05-02T02:47:55.145Z,33.38
2023-05-02T02:50:43.952Z,23.77
2023-05-02T02:53:17.623Z,42.80
2023-05-02T02:55:58.471Z,17.42
2023-05-02T02:58:43.842Z,19.90
2023-05-02T03:01:15.643Z,24.70
2023-05-02T03:03:43.697Z,25.08
2023-05-02T03:06:10.463Z,17.15
2023-05-02T03:08:41.980Z,21.98
2023-05-02T03:11:09.477Z,20.45
2023-05-02T03:13:36.590Z,22.92
2023-05-02T03:16:24.522Z,26.83
2023-05-02T03:18:51.256Z,27.02
2023-05-02T03:21:17.858Z,28.58
2023-05-02T03:23:44.479Z,26.35
2023-05-02T03:26:11.200Z,31.23
2023-05-02T03:28:37.830Z,26.92
2023-05-02T03:31:04.520Z,28.42
2023-05-02T03:33:31.301Z,23.42
2023-05-02T03:35:58.089Z,24.60
2023-05-02T03:38:24.850Z,24.00
2023-05-02T03:40:51.523Z,19.92
2023-05-02T03:43:18.200Z,22.30
2023-05-02T03:45:45.726Z,21.23
2023-05-02T03:48:13.230Z,29.17
2023-05-02T03:50:39.877Z,30.80
2023-05-02T03:53:08.390Z,32.45
2023-05-02T03:55:39.791Z,29.23
2023-05-02T03:58:07.318Z,25.25
2023-05-02T04:00:34.082Z,22.77
2023-05-02T04:03:01.899Z,32.50
2023-05-02T04:05:29.004Z,27.38
2023-05-02T04:07:56.845Z,32.95
2023-05-02T04:10:23.492Z,25.02
2023-05-02T04:12:50.165Z,32.00
2023-05-02T04:15:16.957Z,34.25
2023-05-02T04:17:43.617Z,41.25
2023-05-02T04:20:11.972Z,35.67
2023-05-02T04:22:39.788Z,38.85
2023-05-02T04:25:07.753Z,37.67
2023-05-02T04:27:34.436Z,34.95
2023-05-02T04:30:01.383Z,43.42
2023-05-02T04:32:28.535Z,33.22
2023-05-02T04:34:55.968Z,42.15
2023-05-02T04:37:22.729Z,30.25
2023-05-02T04:39:49.419Z,31.13
2023-05-02T04:42:16.098Z,37.28
2023-05-02T04:44:42.825Z,53.03
2023-05-02T04:47:09.537Z,44.78
2023-05-02T04:49:36.311Z,41.90
2023-05-02T04:52:02.982Z,37.22
2023-05-02T04:54:29.722Z,39.33
2023-05-02T04:56:56.893Z,43.83
2023-05-02T04:59:23.557Z,49.47
2023-05-02T05:01:50.354Z,41.67
2023-05-02T05:04:17.259Z,64.75
2023-05-02T05:06:44.137Z,67.57
2023-05-02T05:09:10.800Z,57.08
2023-05-02T05:11:38.712Z,56.17
2023-05-02T05:14:05.485Z,55.33
2023-05-02T05:16:32.395Z,59.63
2023-05-02T05:19:01.415Z,61.58
2023-05-02T05:23:55.154Z,55.67
2023-05-02T05:26:40.731Z,50.67
2023-05-02T05:29:08.289Z,45.22
2023-05-02T05:31:35.047Z,46.33
2023-05-02T05:34:02.433Z,58.22
2023-05-02T05:36:29.263Z,46.55
2023-05-02T05:38:55.894Z,44.03
2023-05-02T05:41:23.167Z,60.92
2023-05-02T05:43:49.854Z,45.35
2023-05-02T05:46:16.527Z,49.47
2023-05-02T05:48:43.242Z,43.35
2023-05-02T05:51:09.942Z,41.47
2023-05-02T05:53:36.630Z,45.65
2023-05-02T05:56:13.458Z,44.58
2023-05-02T05:58:41.067Z,40.05
2023-05-02T06:01:08.375Z,44.75
2023-05-02T06:03:35.241Z,40.78
2023-05-02T06:06:02.110Z,43.13
2023-05-02T06:08:28.867Z,48.95
2023-05-02T06:10:55.523Z,36.35
2023-05-02T06:13:22.239Z,37.63
2023-05-02T06:15:49.041Z,44.03
2023-05-02T06:18:16.433Z,40.97
2023-05-02T06:20:43.151Z,36.67
2023-05-02T06:23:09.844Z,26.70
2023-05-02T06:25:39.437Z,27.20
2023-05-02T06:28:06.533Z,20.42
2023-05-02T06:30:33.282Z,16.65
2023-05-02T06:33:00.118Z,22.17
2023-05-02T06:35:27.196Z,19.95
2023-05-02T06:37:53.822Z,19.38
2023-05-02T06:40:20.495Z,23.23
2023-05-02T06:42:47.333Z,16.48
2023-05-02T06:45:14.017Z,18.20
2023-05-02T06:47:40.732Z,16.00
2023-05-02T06:50:08.155Z,15.77
2023-05-02T06:52:34.877Z,18.10
2023-05-02T06:55:01.498Z,17.05
2023-05-02T06:57:28.200Z,19.38
2023-05-02T06:59:54.829Z,19.67
2023-05-02T07:02:22.360Z,21.20
2023-05-02T07:04:49.151Z,15.93
2023-05-02T07:07:18.992Z,17.80
2023-05-02T07:09:46.050Z,17.70
2023-05-02T07:12:12.731Z,14.30
2023-05-02T07:14:39.538Z,27.75
2023-05-02T07:17:06.504Z,17.70
2023-05-02T07:19:33.384Z,15.30
2023-05-02T07:22:00.135Z,20.00
2023-05-02T07:24:26.863Z,16.30
2023-05-02T07:26:53.528Z,21.50
2023-05-02T07:29:20.316Z,15.65
2023-05-02T07:31:47.184Z,12.75
2023-05-02T07:34:14.394Z,13.82
2023-05-02T07:36:41.115Z,10.80
2023-05-02T07:39:07.756Z,10.32
2023-05-02T07:41:34.430Z,14.75
2023-05-02T07:44:01.111Z,13.25
2023-05-02T07:46:27.848Z,11.82
2023-05-02T07:48:54.611Z,12.38
2023-05-02T07:51:21.730Z,12.85
2023-05-02T07:53:53.775Z,10.30
2023-05-02T07:56:21.835Z,12.60
2023-05-02T07:58:48.496Z,10.18
2023-05-02T08:01:15.189Z,13.25
2023-05-02T08:03:41.943Z,11.18
2023-05-02T08:06:09.981Z,11.50
2023-05-02T08:08:37.279Z,11.88
2023-05-02T08:11:04.046Z,10.65
2023-05-02T08:13:30.822Z,7.80
2023-05-02T08:15:58.908Z,7.43
2023-05-02T08:18:25.941Z,6.43
2023-05-02T08:20:53.137Z,10.70
2023-05-02T08:23:19.888Z,11.13
2023-05-02T08:25:47.206Z,12.38
2023-05-02T08:28:13.962Z,7.03
2023-05-02T08:30:40.718Z,8.40
2023-05-02T08:33:07.519Z,8.07
2023-05-02T08:35:34.208Z,13.95
2023-05-02T08:38:00.912Z,10.60
2023-05-02T08:40:40.988Z,9.30
2023-05-02T08:43:11.767Z,8.75
2023-05-02T08:45:43.289Z,12.20
2023-05-02T08:48:11.817Z,7.60
2023-05-02T08:50:44.545Z,11.07
2023-05-02T08:53:12.254Z,9.10
2023-05-02T08:55:40.604Z,9.23
2023-05-02T08:58:08.771Z,12.02
2023-05-02T09:00:42.891Z,10.75
2023-05-02T09:03:24.046Z,7.40
2023-05-02T09:05:55.356Z,8.50
2023-05-02T09:08:25.221Z,12.48
2023-05-02T09:10:52.021Z,11.00
2023-05-02T09:13:33.023Z,9.18
2023-05-02T09:16:04.990Z,10.38
2023-05-02T09:18:33.978Z,11.50
2023-05-02T09:21:01.880Z,8.40
2023-05-02T09:23:45.123Z,11.68
2023-05-02T09:26:17.427Z,14.73
2023-05-02T09:28:48.930Z,11.90
2023-05-02T09:31:43.574Z,8.98
2023-05-02T09:34:16.492Z,9.05
2023-05-02T09:36:50.886Z,8.38
2023-05-02T09:39:20.191Z,13.38
2023-05-02T09:41:48.412Z,10.13
2023-05-02T09:44:18.330Z,7.97
2023-05-02T09:46:50.022Z,8.75
2023-05-02T09:49:20.416Z,14.00
2023-05-02T09:51:48.016Z,12.40
2023-05-02T09:54:36.406Z,9.85
2023-05-02T09:57:03.968Z,12.00
2023-05-02T09:59:30.839Z,11.18
2023-05-02T10:01:59.201Z,11.20
2023-05-02T10:04:27.056Z,11.52
2023-05-02T10:06:54.797Z,12.98
2023-05-02T10:09:22.158Z,11.45
2023-05-02T10:11:54.187Z,16.85
2023-05-02T10:14:23.231Z,12.80
2023-05-02T10:19:29.006Z,9.98
2023-05-02T10:21:56.474Z,11.77
2023-05-02T10:24:23.204Z,13.30
2023-05-02T10:26:50.435Z,11.60
2023-05-02T10:29:17.077Z,9.85
2023-05-02T10:31:45.854Z,10.40
2023-05-02T10:34:13.470Z,11.15
2023-05-02T10:36:40.734Z,10.38
2023-05-02T10:39:07.503Z,11.23
2023-05-02T10:41:34.630Z,9.13
2023-05-02T10:44:02.518Z,12.18
2023-05-02T10:46:34.283Z,8.25
2023-05-02T10:49:10.759Z,8.57
2023-05-02T10:51:39.525Z,7.95
2023-05-02T10:54:26.471Z,7.72
2023-05-02T10:57:03.531Z,10.45
2023-05-02T10:59:38.041Z,7.93
2023-05-02T11:02:28.585Z,10.75
2023-05-02T11:05:05.663Z,9.05
2023-05-02T11:07:33.754Z,10.45
2023-05-02T11:10:16.086Z,9.30
2023-05-02T11:12:56.803Z,8.95
2023-05-02T11:15:29.334Z,15.70
2023-05-02T11:18:09.046Z,8.57
2023-05-02T11:20:37.056Z,12.55
2023-05-02T11:23:16.496Z,10.23
2023-05-02T11:25:44.550Z,7.60
2023-05-02T11:28:39.355Z,8.57
2023-05-02T11:31:10.950Z,6.65
2023-05-02T11:33:37.643Z,8.02
2023-05-02T11:36:04.477Z,14.10
2023-05-02T11:38:39.017Z,8.68
2023-05-02T11:41:06.013Z,8.43
2023-05-02T11:43:33.030Z,7.55
2023-05-02T11:46:02.174Z,9.10
2023-05-02T11:48:29.464Z,8.07
2023-05-02T11:50:58.491Z,8.18
2023-05-02T11:53:26.695Z,7.25
2023-05-02T11:55:55.315Z,11.18
2023-05-02T11:58:24.165Z,9.50
2023-05-02T12:00:52.516Z,10.77
2023-05-02T12:03:32.601Z,8.55
2023-05-02T12:06:11.891Z,8.68
2023-05-02T12:08:39.538Z,9.63
2023-05-02T12:11:06.911Z,7.00
2023-05-02T12:13:34.020Z,9.20
2023-05-02T12:16:00.906Z,9.10
2023-05-02T12:18:27.738Z,8.52
2023-05-02T12:20:56.180Z,13.95
2023-05-02T12:23:25.078Z,9.20
2023-05-02T12:28:19.746Z,9.15
2023-05-02T12:30:49.440Z,10.43
2023-05-02T12:33:17.504Z,7.55
2023-05-02T12:35:46.727Z,11.02
2023-05-02T12:38:13.395Z,11.07
2023-05-02T12:40:47.251Z,6.80
2023-05-02T12:43:13.934Z,9.57
2023-05-02T12:45:40.616Z,5.65
2023-05-02T12:48:23.335Z,9.07
2023-05-02T12:50:50.785Z,8.40
2023-05-02T12:53:17.577Z,9.15
2023-05-02T12:55:44.355Z,6.43
2023-05-02T12:58:13.560Z,10.60
2023-05-02T13:00:41.798Z,7.90
2023-05-02T13:03:10.113Z,7.32
2023-05-02T13:05:37.351Z,10.18
2023-05-02T13:08:04.239Z,6.85
2023-05-02T13:10:30.977Z,7.97
2023-05-02T13:12:57.682Z,7.15
2023-05-02T13:15:24.460Z,15.05
2023-05-02T13:17:52.439Z,6.43
2023-05-02T13:20:19.396Z,10.82
2023-05-02T13:22:46.099Z,6.68
2023-05-02T13:25:12.850Z,8.52
2023-05-02T13:27:41.279Z,8.88
2023-05-02T13:30:09.791Z,8.02
2023-05-02T13:32:36.835Z,9.73
2023-05-02T13:35:03.827Z,7.18
2023-05-02T13:37:30.574Z,13.07
2023-05-02T13:39:57.332Z,9.27
2023-05-02T13:42:24.059Z,8.75
2023-05-02T13:44:50.855Z,10.00
2023-05-02T13:47:17.539Z,7.85
2023-05-02T13:49:44.201Z,9.40
2023-05-02T13:52:10.880Z,8.27
2023-05-02T13:54:37.555Z,12.23
2023-05-02T13:57:05.562Z,9.82
2023-05-02T13:59:32.327Z,7.28
2023-05-02T14:01:59.193Z,6.97
2023-05-02T14:04:25.820Z,8.02
2023-05-02T14:06:52.669Z,7.53
2023-05-02T14:09:19.437Z,12.82
2023-05-02T14:11:47.317Z,8.73
2023-05-02T14:14:14.288Z,10.00
2023-05-02T14:16:41.175Z,17.35
2023-05-02T14:19:07.956Z,20.27
2023-05-02T14:21:34.784Z,8.70
2023-05-02T14:24:01.496Z,11.77
2023-05-02T14:26:28.176Z,10.00
2023-05-02T14:28:54.813Z,9.77
2023-05-02T14:31:21.550Z,8.60
2023-05-02T14:33:48.237Z,8.77
2023-05-02T14:36:14.916Z,8.40
2023-05-02T14:38:41.596Z,10.23
2023-05-02T14:41:08.259Z,6.40
2023-05-02T14:43:34.901Z,7.43
2023-05-02T14:46:02.748Z,8.60
2023-05-02T14:48:29.553Z,14.75
2023-05-02T14:50:57.461Z,16.88
2023-05-02T14:53:24.131Z,10.15
2023-05-02T14:55:50.819Z,8.43
2023-05-02T14:58:20.857Z,6.78
2023-05-02T15:00:48.173Z,7.93
2023-05-02T15:03:15.231Z,7.90
2023-05-02T15:05:42.266Z,6.93
2023-05-02T15:08:09.424Z,9.00
2023-05-02T15:10:39.474Z,7.40
2023-05-02T15:13:07.310Z,6.65
2023-05-02T15:15:34.141Z,8.18
2023-05-02T15:18:00.968Z,8.18
2023-05-02T15:20:27.765Z,9.20
2023-05-02T15:22:54.526Z,7.30
2023-05-02T15:25:21.416Z,8.93
2023-05-02T15:27:48.193Z,8.90
2023-05-02T15:30:17.068Z,7.88
2023-05-02T15:32:44.829Z,11.05
2023-05-02T15:35:11.803Z,9.52
2023-05-02T15:37:38.567Z,9.88
2023-05-02T15:40:06.816Z,9.05
2023-05-02T15:42:36.906Z,8.70
2023-05-02T15:45:04.272Z,12.13
2023-05-02T15:47:31.130Z,9.00
2023-05-02T15:49:58.439Z,8.57
2023-05-02T15:52:25.193Z,8.40
2023-05-02T15:54:52.054Z,9.57
2023-05-02T15:57:19.717Z,10.45
2023-05-02T15:59:46.423Z,9.02
2023-05-02T16:02:13.279Z,11.13
2023-05-02T16:04:40.075Z,10.30
2023-05-02T16:07:06.849Z,9.93
2023-05-02T16:09:33.668Z,11.93
2023-05-02T16:12:01.575Z,10.25
2023-05-02T16:14:29.084Z,10.10
2023-05-02T16:16:56.722Z,9.70
2023-05-02T16:19:23.497Z,10.50
2023-05-02T16:21:50.385Z,12.07
2023-05-02T16:24:17.074Z,9.55
2023-05-02T16:26:43.795Z,9.90
2023-05-02T16:29:10.558Z,12.48
2023-05-02T16:31:37.371Z,9.93
2023-05-02T16:34:04.268Z,19.10
2023-05-02T16:36:31.712Z,11.65
2023-05-02T16:38:58.423Z,13.82
2023-05-02T16:41:25.115Z,13.05
2023-05-02T16:43:51.736Z,13.02
2023-05-02T16:46:18.585Z,10.70
2023-05-02T16:48:45.300Z,11.60
2023-05-02T16:51:11.993Z,13.07
2023-05-02T16:53:38.713Z,11.02
2023-05-02T16:56:06.064Z,11.90
2023-05-02T16:58:32.910Z,12.95
2023-05-02T17:01:01.043Z,9.73
2023-05-02T17:03:29.032Z,11.23
2023-05-02T17:06:01.879Z,14.30
2023-05-02T17:08:29.389Z,10.48
2023-05-02T17:10:56.268Z,11.13
2023-05-02T17:13:23.121Z,13.90
2023-05-02T17:15:50.089Z,15.57
2023-05-02T17:18:16.963Z,12.77
2023-05-02T17:20:45.206Z,12.93
2023-05-02T17:23:12.225Z,10.82
2023-05-02T17:25:39.045Z,15.55
2023-05-02T17:28:06.519Z,12.13
2023-05-02T17:30:33.757Z,10.50
2023-05-02T17:33:00.638Z,11.75
2023-05-02T17:35:28.643Z,14.05
2023-05-02T17:37:55.610Z,13.63
2023-05-02T17:40:22.575Z,10.55
2023-05-02T17:42:49.603Z,17.67
2023-05-02T17:45:16.813Z,12.10
2023-05-02T17:47:43.574Z,17.13
2023-05-02T17:50:10.666Z,18.27
2023-05-02T17:52:37.388Z,12.68
2023-05-02T17:55:04.357Z,10.73
2023-05-02T17:57:31.173Z,12.43
2023-05-02T17:59:59.473Z,11.00
2023-05-02T18:02:27.600Z,14.85
2023-05-02T18:04:54.914Z,11.00
2023-05-02T18:07:24.428Z,16.00
2023-05-02T18:09:52.134Z,13.63
2023-05-02T18:12:19.154Z,11.63
2023-05-02T18:14:46.033Z,14.02
2023-05-02T18:17:12.864Z,16.50
2023-05-02T18:19:39.751Z,20.10
2023-05-02T18:22:07.316Z,17.60
2023-05-02T18:24:34.181Z,21.38
2023-05-02T18:27:01.047Z,21.25
2023-05-02T18:29:27.829Z,18.35
2023-05-02T18:31:54.962Z,17.08
2023-05-02T18:34:21.696Z,17.85
2023-05-02T18:36:48.649Z,17.95
2023-05-02T18:39:15.836Z,19.35
2023-05-02T18:41:42.910Z,22.98
2023-05-02T18:44:11.506Z,18.35
2023-05-02T18:46:38.350Z,16.23
2023-05-02T18:49:05.117Z,23.02
2023-05-02T18:51:31.984Z,24.52
2023-05-02T18:53:58.670Z,16.25
2023-05-02T18:56:25.557Z,16.30
2023-05-02T18:58:56.593Z,16.02
2023-05-02T19:01:24.035Z,22.92
2023-05-02T19:03:52.658Z,20.88
2023-05-02T19:06:20.467Z,23.05
2023-05-02T19:08:48.007Z,22.17
2023-05-02T19:11:15.036Z,23.25
2023-05-02T19:13:41.777Z,21.95
2023-05-02T19:16:12.656Z,18.48
2023-05-02T19:18:40.221Z,16.48
2023-05-02T19:21:13.787Z,19.90
2023-05-02T19:23:41.893Z,23.33
2023-05-02T19:26:15.882Z,18.55
2023-05-02T19:28:43.435Z,19.58
2023-05-02T19:31:11.776Z,22.92
2023-05-02T19:33:39.820Z,20.30
2023-05-02T19:36:07.328Z,20.27
2023-05-02T19:38:34.805Z,18.13
2023-05-02T19:41:02.097Z,17.20
2023-05-02T19:43:47.345Z,16.58
2023-05-02T19:46:14.761Z,20.30
2023-05-02T19:48:41.880Z,26.45
2023-05-02T19:51:08.731Z,23.27
2023-05-02T19:53:36.993Z,22.05
2023-05-02T19:56:05.157Z,20.98
2023-05-02T19:58:32.048Z,22.05
2023-05-02T20:00:58.781Z,22.33
2023-05-02T20:03:25.706Z,23.48
2023-05-02T20:05:52.509Z,20.92
2023-05-02T20:08:19.771Z,21.38
2023-05-02T20:10:47.608Z,21.05
2023-05-02T20:13:14.308Z,20.10
2023-05-02T20:15:41.301Z,19.35
2023-05-02T20:18:08.066Z,19.90
2023-05-02T20:20:34.824Z,23.02
2023-05-02T20:23:01.481Z,19.58
2023-05-02T20:25:28.735Z,20.25
2023-05-02T20:27:55.447Z,18.52
2023-05-02T20:30:22.187Z,20.50
2023-05-02T20:32:48.982Z,19.48
2023-05-02T20:35:16.000Z,19.95
2023-05-02T20:37:42.685Z,21.65
2023-05-02T20:40:10.058Z,23.42
2023-05-02T20:42:38.999Z,17.90
2023-05-02T20:45:09.189Z,17.90
2023-05-02T20:47:35.945Z,19.42
2023-05-02T20:50:03.357Z,17.38
2023-05-02T20:52:30.809Z,19.95
2023-05-02T20:54:57.585Z,19.27
2023-05-02T20:57:24.526Z,21.90
2023-05-02T20:59:51.256Z,22.30
2023-05-02T21:02:18.033Z,21.88
2023-05-02T21:04:44.862Z,34.47
2023-05-02T21:07:11.633Z,17.98
2023-05-02T21:09:38.294Z,22.42
2023-05-02T21:12:06.464Z,24.60
2023-05-02T21:14:33.956Z,21.20
2023-05-02T21:17:00.877Z,19.20
2023-05-02T21:19:27.817Z,21.80
2023-05-02T21:21:54.498Z,15.90
2023-05-02T21:24:21.215Z,15.52
2023-05-02T21:26:47.898Z,18.67
2023-05-02T21:29:15.073Z,20.30
2023-05-02T21:31:41.800Z,21.08
2023-05-02T21:34:08.568Z,17.33
2023-05-02T21:36:35.750Z,20.52
2023-05-02T21:39:02.439Z,24.05
2023-05-02T21:41:29.127Z,21.27
2023-05-02T21:43:55.938Z,18.65
2023-05-02T21:46:22.678Z,22.33
2023-05-02T21:48:49.527Z,21.73
2023-05-02T21:51:16.246Z,22.30
2023-05-02T21:53:43.107Z,23.13
2023-05-02T21:56:10.690Z,19.55
2023-05-02T21:58:37.364Z,23.13
2023-05-02T22:01:04.255Z,24.42
2023-05-02T22:03:31.095Z,23.67
2023-05-02T22:06:01.063Z,21.30
2023-05-02T22:08:27.930Z,19.13
2023-05-02T22:10:54.618Z,20.75
2023-05-02T22:13:21.514Z,19.90
2023-05-02T22:15:48.706Z,17.10
2023-05-02T22:18:16.934Z,23.70
2023-05-02T22:20:44.754Z,21.13
2023-05-02T22:23:12.403Z,23.00
2023-05-02T22:25:44.633Z,19.08
2023-05-02T22:28:12.263Z,20.77
2023-05-02T22:30:39.740Z,18.70
2023-05-02T22:33:07.639Z,16.55
2023-05-02T22:35:34.488Z,18.35
2023-05-02T22:38:04.125Z,19.23
2023-05-02T22:40:31.597Z,20.67
2023-05-02T22:42:59.043Z,19.85
2023-05-02T22:45:27.020Z,20.90
2023-05-02T22:47:53.867Z,20.15
2023-05-02T22:50:21.530Z,18.42
2023-05-02T22:52:49.180Z,18.52
2023-05-02T22:55:16.026Z,18.98
2023-05-02T22:57:42.953Z,21.10
2023-05-02T23:00:10.884Z,22.95
2023-05-02T23:02:37.785Z,17.63
2023-05-02T23:05:05.036Z,22.60
2023-05-02T23:07:31.748Z,21.50
2023-05-02T23:09:58.461Z,18.45
2023-05-02T23:12:25.110Z,18.33
2023-05-02T23:14:51.804Z,27.27
2023-05-02T23:17:18.476Z,18.95
2023-05-02T23:19:45.234Z,19.38
2023-05-02T23:22:11.983Z,20.05
2023-05-02T23:24:38.691Z,17.42
2023-05-02T23:27:06.654Z,21.67
2023-05-02T23:29:33.377Z,22.88
2023-05-02T23:32:00.160Z,17.42
2023-05-02T23:34:26.989Z,17.95
2023-05-02T23:36:53.902Z,21.20
2023-05-02T23:39:21.106Z,20.35
2023-05-02T23:41:47.821Z,18.02
2023-05-02T23:44:14.508Z,18.13
2023-05-02T23:46:41.245Z,17.95
2023-05-02T23:49:08.025Z,17.17
2023-05-02T23:51:34.755Z,18.48
2023-05-02T23:54:01.548Z,16.55
2023-05-02T23:56:28.295Z,21.35
2023-05-02T23:58:55.395Z,15.75
